aviador You're here:

EGUN Decoded Metar

MILDENHALL in ENGLAND
Report Time2018-01-16 20:56:00
UTC Time2018-01-16 21:18:55
Flight Rules vfr VFR
Wind250° at 13 Gusting to 19 kt
W.Decomp.*RWY 29: 10.1 kt HW 8.2 kt LCW
W.Rank250° ranks 5
Current wind is above 250° avg. (8.9)
Visibility9999 m
Phenomena:N/A
Clouds:N/A
CeilingNone
Temp03°C (ISA -12)
Dew Point03°C (100% RH)
AAT-3.2°C
QNH991 hPa
Density Alt-554 ft
Elevation33 ft
Report Wrong Elevation
Raw Report
EGUN 162056Z AUTO 25013G19KT 9999 CLR 03/03 A2927 RMK AO2 SLP915
T00270026 55000 .=

Extra information for EGUN:More info

Metar Taf Metar & Taf Last 4 Metars F.Rules Stats Wind Profile Meteogram Temp Stats Airport Information Weather charts Add Link Nearby VenuesMetar ALERT Operation Metar Decoded Social comments